createdAt,value
2019-01-11T00:01:14.249Z,11.50
2019-01-11T00:02:15.206Z,9.60
2019-01-11T00:04:07.603Z,9.40
2019-01-11T00:05:06.796Z,11.40
2019-01-11T00:07:01.082Z,10.50
2019-01-11T00:08:00.471Z,10.50
2019-01-11T00:09:53.417Z,11.00
2019-01-11T00:10:54.246Z,11.00
2019-01-11T00:11:53.905Z,10.70
2019-01-11T00:12:53.875Z,11.70
2019-01-11T00:13:53.307Z,11.10
2019-01-11T00:14:54.250Z,11.90
2019-01-11T00:15:52.671Z,12.00
2019-01-11T00:16:52.436Z,12.10
2019-01-11T00:17:53.659Z,11.50
2019-01-11T00:18:52.063Z,12.10
2019-01-11T00:19:51.982Z,10.70
2019-01-11T00:20:51.960Z,12.30
2019-01-11T00:21:51.908Z,12.70
2019-01-11T00:22:51.862Z,12.00
2019-01-11T00:23:51.809Z,11.90
2019-01-11T00:24:51.777Z,11.80
2019-01-11T00:25:51.716Z,12.30
2019-01-11T00:26:51.669Z,12.10
2019-01-11T00:27:51.651Z,12.10
2019-01-11T00:28:51.560Z,12.10
2019-01-11T00:29:51.529Z,11.30
2019-01-11T00:30:51.469Z,11.20
2019-01-11T00:31:51.442Z,11.40
2019-01-11T00:32:51.605Z,12.00
2019-01-11T00:33:51.356Z,11.50
2019-01-11T00:34:51.294Z,11.20
2019-01-11T00:35:51.242Z,12.90
2019-01-11T00:36:51.187Z,12.30
2019-01-11T00:37:51.174Z,11.10
2019-01-11T00:38:51.083Z,11.40
2019-01-11T00:39:51.084Z,12.00
2019-01-11T00:40:51.026Z,12.10
2019-01-11T00:41:50.939Z,12.70
2019-01-11T00:42:50.912Z,11.70
2019-01-11T00:43:50.849Z,12.60
2019-01-11T00:44:50.821Z,11.50
2019-01-11T00:45:50.770Z,12.90
2019-01-11T00:46:50.738Z,13.10
2019-01-11T00:47:50.658Z,13.20
2019-01-11T00:48:51.804Z,12.30
2019-01-11T00:49:50.575Z,12.80
2019-01-11T00:50:50.549Z,13.50
2019-01-11T00:51:50.506Z,13.30
2019-01-11T00:52:50.432Z,12.60
2019-01-11T00:53:50.394Z,13.50
2019-01-11T00:54:50.363Z,13.40
2019-01-11T00:55:50.335Z,13.60
2019-01-11T00:56:50.283Z,13.60
2019-01-11T00:57:50.298Z,12.90
2019-01-11T00:58:50.170Z,12.80
2019-01-11T00:59:50.084Z,13.20
2019-01-11T01:00:50.038Z,13.90
2019-01-11T01:01:50.046Z,13.70
2019-01-11T01:02:49.960Z,12.30
2019-01-11T01:03:49.919Z,13.10
2019-01-11T01:04:49.877Z,12.70
2019-01-11T01:05:49.821Z,14.10
2019-01-11T01:06:49.779Z,11.90
2019-01-11T01:07:49.743Z,12.80
2019-01-11T01:08:49.703Z,11.70
2019-01-11T01:09:49.641Z,12.20
2019-01-11T01:10:49.582Z,12.60
2019-01-11T01:11:49.524Z,12.40
2019-01-11T01:12:49.475Z,12.80
2019-01-11T01:13:49.483Z,12.80
2019-01-11T01:14:49.405Z,13.30
2019-01-11T01:15:49.354Z,12.90
2019-01-11T01:16:49.307Z,12.40
2019-01-11T01:17:49.271Z,13.40
2019-01-11T01:18:49.237Z,12.50
2019-01-11T01:19:49.148Z,13.90
2019-01-11T01:20:49.137Z,12.80
2019-01-11T01:21:49.071Z,12.90
2019-01-11T01:23:24.873Z,11.90
2019-01-11T01:23:48.977Z,13.30
2019-01-11T01:24:48.934Z,12.40
2019-01-11T01:25:48.884Z,12.80
2019-01-11T01:26:48.831Z,12.00
2019-01-11T01:27:48.770Z,13.20
2019-01-11T01:28:48.735Z,12.40
2019-01-11T01:29:48.676Z,13.30
2019-01-11T01:30:48.636Z,13.70
2019-01-11T01:31:48.588Z,12.50
2019-01-11T01:34:21.335Z,13.20
2019-01-11T01:35:22.019Z,12.60
2019-01-11T01:37:14.274Z,12.20
2019-01-11T01:38:13.564Z,13.00
2019-01-11T01:40:07.754Z,13.10
2019-01-11T01:41:08.183Z,12.40
2019-01-11T01:43:00.957Z,12.60
2019-01-11T01:43:59.405Z,12.30
2019-01-11T01:45:55.695Z,13.20
2019-01-11T01:46:54.079Z,11.90
2019-01-11T01:48:47.121Z,12.90
2019-01-11T01:49:48.049Z,12.90
2019-01-11T01:51:40.572Z,12.40
2019-01-11T01:52:39.589Z,12.30
2019-01-11T01:54:33.773Z,11.60
2019-01-11T01:55:32.651Z,11.90
2019-01-11T01:57:27.025Z,12.80
2019-01-11T01:58:27.461Z,11.40
2019-01-11T02:00:20.971Z,12.00
2019-01-11T02:01:20.357Z,12.20
2019-01-11T02:03:15.213Z,12.10
2019-01-11T02:04:14.394Z,11.30
2019-01-11T02:06:06.875Z,12.20
2019-01-11T02:07:06.128Z,12.10
2019-01-11T02:08:59.358Z,12.20
2019-01-11T02:09:59.045Z,12.00
2019-01-11T02:11:53.324Z,11.90
2019-01-11T02:12:52.752Z,12.30
2019-01-11T02:14:47.825Z,12.40
2019-01-11T02:15:48.023Z,11.30
2019-01-11T02:17:40.444Z,11.50
2019-01-11T02:18:39.319Z,12.50
2019-01-11T02:20:34.324Z,11.40
2019-01-11T02:21:33.853Z,11.70
2019-01-11T02:23:26.885Z,10.90
2019-01-11T02:24:26.908Z,11.70
2019-01-11T02:26:19.539Z,12.50
2019-01-11T02:27:18.202Z,11.30
2019-01-11T02:29:12.015Z,12.30
2019-01-11T02:30:12.406Z,12.40
2019-01-11T02:32:05.428Z,12.30
2019-01-11T02:33:04.115Z,12.00
2019-01-11T02:34:59.455Z,11.80
2019-01-11T02:35:59.323Z,12.50
2019-01-11T02:37:53.051Z,11.90
2019-01-11T02:38:52.263Z,11.50
2019-01-11T02:40:45.810Z,12.40
2019-01-11T02:41:44.587Z,11.50
2019-01-11T02:43:38.270Z,12.50
2019-01-11T02:44:38.714Z,12.00
2019-01-11T02:46:30.712Z,12.90
2019-01-11T02:47:31.934Z,12.50
2019-01-11T02:49:26.260Z,11.60
2019-01-11T02:50:25.907Z,12.60
2019-01-11T02:52:19.186Z,12.10
2019-01-11T02:53:18.837Z,11.60
2019-01-11T02:55:12.166Z,12.30
2019-01-11T02:56:10.793Z,11.80
2019-01-11T02:58:04.509Z,11.80
2019-01-11T02:59:04.494Z,12.10
2019-01-11T03:00:57.733Z,11.30
2019-01-11T03:01:56.955Z,12.00
2019-01-11T03:03:50.469Z,12.20
2019-01-11T03:04:51.453Z,11.90
2019-01-11T03:06:44.434Z,12.10
2019-01-11T03:07:43.336Z,11.50
2019-01-11T03:09:49.749Z,11.40
2019-01-11T03:10:49.124Z,11.60
2019-01-11T03:12:41.758Z,12.80
2019-01-11T03:13:41.435Z,11.20
2019-01-11T03:15:47.720Z,12.20
2019-01-11T03:16:45.681Z,11.50
2019-01-11T03:18:40.760Z,12.40
2019-01-11T03:19:39.413Z,12.10
2019-01-11T03:21:44.191Z,12.50
2019-01-11T03:22:43.977Z,12.20
2019-01-11T03:24:39.008Z,13.10
2019-01-11T03:25:38.367Z,12.40
2019-01-11T03:27:32.760Z,12.90
2019-01-11T03:28:32.911Z,12.60
2019-01-11T03:30:25.697Z,13.10
2019-01-11T03:31:24.372Z,13.60
2019-01-11T03:33:18.090Z,12.70
2019-01-11T03:34:18.335Z,12.80
2019-01-11T03:36:11.620Z,12.90
2019-01-11T03:37:11.262Z,12.60
2019-01-11T03:39:04.550Z,13.50
2019-01-11T03:40:03.932Z,12.90
2019-01-11T03:41:57.479Z,13.50
2019-01-11T03:42:55.974Z,13.50
2019-01-11T03:44:51.011Z,12.80
2019-01-11T03:45:50.656Z,13.50
2019-01-11T03:47:43.873Z,13.30
2019-01-11T03:48:43.584Z,13.10
2019-01-11T03:50:37.922Z,13.50
2019-01-11T03:51:37.284Z,13.90
2019-01-11T03:53:30.526Z,13.50
2019-01-11T03:54:29.421Z,13.80
2019-01-11T03:56:23.293Z,13.80
2019-01-11T03:57:23.509Z,13.20
2019-01-11T03:59:16.758Z,12.80
2019-01-11T04:00:16.693Z,13.20
2019-01-11T04:02:09.957Z,14.00
2019-01-11T04:03:09.427Z,14.30
2019-01-11T04:05:04.192Z,13.80
2019-01-11T04:06:04.365Z,14.40
2019-01-11T04:07:57.145Z,14.00
2019-01-11T04:08:57.327Z,13.80
2019-01-11T04:10:49.624Z,13.60
2019-01-11T04:11:49.056Z,14.80
2019-01-11T04:13:43.067Z,14.00
2019-01-11T04:14:41.854Z,14.70
2019-01-11T04:16:36.019Z,15.60
2019-01-11T04:17:34.668Z,15.00
2019-01-11T04:19:29.549Z,15.10
2019-01-11T04:20:29.412Z,15.40
2019-01-11T04:22:23.482Z,14.70
2019-01-11T04:23:23.375Z,13.90
2019-01-11T04:25:16.630Z,14.80
2019-01-11T04:26:15.089Z,15.30
2019-01-11T04:28:09.082Z,16.10
2019-01-11T04:29:09.570Z,16.20
2019-01-11T04:31:02.499Z,16.30
2019-01-11T04:32:02.020Z,16.00
2019-01-11T04:33:55.323Z,15.60
2019-01-11T04:34:54.694Z,16.30
2019-01-11T04:36:48.430Z,15.70
2019-01-11T04:37:48.436Z,16.40
2019-01-11T04:39:54.055Z,15.80
2019-01-11T04:40:52.779Z,17.40
2019-01-11T04:42:46.325Z,16.90
2019-01-11T04:43:45.993Z,16.30
2019-01-11T04:45:52.222Z,18.90
2019-01-11T04:46:52.057Z,20.10
2019-01-11T04:48:46.511Z,18.60
2019-01-11T04:49:44.780Z,18.00
2019-01-11T04:51:39.629Z,18.30
2019-01-11T04:52:37.635Z,18.60
2019-01-11T04:54:32.413Z,16.90
2019-01-11T04:55:31.244Z,15.90
2019-01-11T04:57:25.332Z,15.40
2019-01-11T04:58:25.259Z,16.80
2019-01-11T05:00:17.982Z,15.70
2019-01-11T05:01:16.531Z,15.90
2019-01-11T05:03:11.381Z,16.40
2019-01-11T05:04:10.957Z,15.10
2019-01-11T05:06:04.286Z,19.10
2019-01-11T05:07:02.468Z,17.50
2019-01-11T05:08:58.225Z,18.10
2019-01-11T05:09:57.185Z,17.10
2019-01-11T05:11:51.731Z,16.40
2019-01-11T05:12:50.186Z,16.90
2019-01-11T05:14:44.147Z,17.20
2019-01-11T05:15:43.326Z,17.50
2019-01-11T05:17:37.054Z,18.10
2019-01-11T05:18:35.875Z,16.10
2019-01-11T05:20:31.734Z,17.20
2019-01-11T05:21:30.278Z,16.30
2019-01-11T05:23:24.993Z,15.50
2019-01-11T05:24:24.310Z,16.40
2019-01-11T05:26:17.429Z,16.30
2019-01-11T05:27:17.633Z,17.10
2019-01-11T05:29:11.834Z,18.20
2019-01-11T05:30:12.796Z,16.70
2019-01-11T05:32:05.890Z,16.40
2019-01-11T05:33:04.516Z,17.30
2019-01-11T05:34:57.962Z,17.00
2019-01-11T05:35:57.088Z,17.80
2019-01-11T05:37:51.201Z,17.20
2019-01-11T05:38:49.990Z,17.00
2019-01-11T05:40:46.215Z,17.50
2019-01-11T05:41:45.867Z,16.60
2019-01-11T05:43:38.658Z,18.20
2019-01-11T05:44:37.476Z,17.50
2019-01-11T05:46:32.210Z,18.20
2019-01-11T05:47:31.762Z,17.60
2019-01-11T05:49:24.738Z,17.90
2019-01-11T05:50:24.388Z,17.30
2019-01-11T05:52:17.721Z,17.30
2019-01-11T05:53:17.718Z,17.50
2019-01-11T05:55:11.090Z,16.50
2019-01-11T05:56:10.665Z,17.60
2019-01-11T05:58:05.519Z,18.00
2019-01-11T05:59:04.362Z,17.40
2019-01-11T06:00:04.845Z,17.90
2019-01-11T06:01:03.603Z,17.60
2019-01-11T06:02:05.203Z,17.40
2019-01-11T06:03:05.095Z,16.00
2019-01-11T06:04:04.634Z,16.60
2019-01-11T06:05:05.131Z,17.10
2019-01-11T06:06:05.118Z,17.20
2019-01-11T06:07:05.075Z,17.70
2019-01-11T06:08:04.637Z,17.20
2019-01-11T06:09:04.936Z,16.80
2019-01-11T06:10:04.367Z,18.90
2019-01-11T06:11:04.825Z,20.30
2019-01-11T06:12:04.863Z,31.00
2019-01-11T06:13:04.220Z,31.90
2019-01-11T06:14:04.876Z,28.80
2019-01-11T06:15:04.662Z,26.20
2019-01-11T06:16:03.585Z,22.60
2019-01-11T06:17:04.045Z,18.40
2019-01-11T06:18:03.463Z,19.20
2019-01-11T06:19:04.437Z,18.80
2019-01-11T06:20:04.618Z,20.50
2019-01-11T06:21:04.499Z,20.00
2019-01-11T06:22:04.143Z,17.60
2019-01-11T06:23:04.098Z,19.30
2019-01-11T06:24:04.318Z,17.90
2019-01-11T06:25:04.320Z,17.60
2019-01-11T06:26:04.395Z,16.80
2019-01-11T06:27:02.870Z,18.20
2019-01-11T06:28:04.144Z,17.30
2019-01-11T06:29:04.073Z,19.00
2019-01-11T06:30:04.013Z,18.50
2019-01-11T06:31:03.129Z,18.40
2019-01-11T06:32:03.887Z,15.50
2019-01-11T06:33:03.617Z,18.60
2019-01-11T06:34:05.069Z,15.90
2019-01-11T06:35:03.909Z,14.50
2019-01-11T06:36:03.808Z,14.20
2019-01-11T06:37:03.140Z,15.40
2019-01-11T06:38:03.614Z,14.50
2019-01-11T06:39:03.495Z,14.50
2019-01-11T06:40:03.509Z,14.10
2019-01-11T06:41:03.493Z,15.40
2019-01-11T06:42:03.437Z,16.00
2019-01-11T06:43:03.564Z,16.00
2019-01-11T06:44:03.412Z,15.30
2019-01-11T06:45:03.291Z,17.70
2019-01-11T06:46:03.330Z,16.50
2019-01-11T06:47:03.281Z,16.80
2019-01-11T06:48:03.202Z,16.80
2019-01-11T06:49:03.108Z,16.40
2019-01-11T06:50:03.111Z,15.90
2019-01-11T06:51:02.470Z,16.20
2019-01-11T06:52:02.402Z,17.90
2019-01-11T06:53:02.373Z,16.30
2019-01-11T06:54:03.026Z,17.70
2019-01-11T06:55:02.861Z,17.10
2019-01-11T06:56:02.856Z,15.80
2019-01-11T06:57:02.819Z,14.70
2019-01-11T06:58:02.817Z,16.90
2019-01-11T06:59:02.603Z,17.90
2019-01-11T07:00:02.941Z,17.20
2019-01-11T07:01:02.609Z,19.50
2019-01-11T07:02:02.370Z,18.30
2019-01-11T07:03:01.920Z,18.00
2019-01-11T07:04:02.433Z,17.30
2019-01-11T07:05:01.292Z,18.90
2019-01-11T07:06:02.391Z,17.90
2019-01-11T07:07:02.558Z,16.50
2019-01-11T07:08:02.336Z,17.10
2019-01-11T07:09:02.341Z,17.40
2019-01-11T07:10:01.649Z,17.00
2019-01-11T07:11:02.100Z,17.00
2019-01-11T07:12:02.080Z,16.90
2019-01-11T07:13:02.031Z,16.30
2019-01-11T07:14:00.877Z,16.60
2019-01-11T07:15:01.898Z,16.30
2019-01-11T07:16:02.099Z,16.50
2019-01-11T07:17:01.801Z,16.10
2019-01-11T07:18:01.884Z,17.50
2019-01-11T07:19:01.769Z,16.80
2019-01-11T07:20:05.369Z,17.40
2019-01-11T07:21:01.824Z,17.80
2019-01-11T07:22:00.248Z,17.80
2019-01-11T07:23:00.979Z,17.70
2019-01-11T07:24:01.148Z,18.50
2019-01-11T07:24:59.690Z,18.50
2019-01-11T07:26:01.292Z,18.20
2019-01-11T07:26:59.258Z,18.20
2019-01-11T07:27:59.171Z,17.20
2019-01-11T07:28:59.137Z,16.70
2019-01-11T07:29:59.085Z,16.90
2019-01-11T07:30:59.055Z,16.10
2019-01-11T07:31:59.052Z,18.60
2019-01-11T07:32:58.970Z,17.20
2019-01-11T07:33:58.896Z,17.60
2019-01-11T07:34:58.869Z,18.00
2019-01-11T07:35:58.825Z,18.50
2019-01-11T07:36:58.767Z,17.40
2019-01-11T07:37:58.719Z,17.80
2019-01-11T07:38:58.669Z,17.50
2019-01-11T07:39:58.615Z,17.30
2019-01-11T07:40:58.574Z,17.30
2019-01-11T07:41:58.537Z,17.90
2019-01-11T07:42:58.490Z,17.40
2019-01-11T07:43:58.440Z,17.40
2019-01-11T07:44:58.394Z,16.90
2019-01-11T07:45:58.388Z,15.80
2019-01-11T07:46:58.333Z,15.90
2019-01-11T07:47:58.254Z,15.10
2019-01-11T07:48:58.242Z,16.10
2019-01-11T07:49:58.176Z,16.40
2019-01-11T07:50:58.127Z,16.90
2019-01-11T07:51:58.066Z,16.20
2019-01-11T07:52:58.036Z,15.10
2019-01-11T07:53:57.981Z,14.90
2019-01-11T07:54:57.921Z,15.00
2019-01-11T07:55:57.893Z,15.80
2019-01-11T07:56:57.823Z,15.90
2019-01-11T07:57:57.806Z,16.60
2019-01-11T07:58:57.755Z,15.00
2019-01-11T07:59:57.710Z,15.80
2019-01-11T08:00:57.667Z,16.50
2019-01-11T08:01:57.611Z,15.90
2019-01-11T08:02:57.579Z,15.00
2019-01-11T08:03:57.525Z,17.10
2019-01-11T08:04:57.471Z,15.10
2019-01-11T08:05:57.458Z,16.50
2019-01-11T08:06:57.379Z,14.70
2019-01-11T08:07:57.349Z,13.80
2019-01-11T08:08:57.305Z,13.30
2019-01-11T08:09:57.264Z,14.30
2019-01-11T08:10:57.194Z,14.80
2019-01-11T08:11:57.185Z,14.00
2019-01-11T08:12:57.102Z,15.10
2019-01-11T08:13:57.082Z,14.70
2019-01-11T08:14:57.024Z,14.40
2019-01-11T08:15:56.962Z,14.20
2019-01-11T08:16:56.931Z,14.10
2019-01-11T08:17:56.876Z,15.30
2019-01-11T08:18:56.827Z,13.60
2019-01-11T08:19:56.794Z,14.60
2019-01-11T08:20:56.746Z,14.00
2019-01-11T08:21:56.695Z,15.50
2019-01-11T08:22:56.628Z,15.40
2019-01-11T08:23:56.593Z,15.30
2019-01-11T08:24:56.611Z,16.20
2019-01-11T08:25:56.509Z,18.80
2019-01-11T08:26:56.450Z,15.50
2019-01-11T08:27:56.409Z,15.10
2019-01-11T08:28:56.361Z,15.20
2019-01-11T08:29:56.331Z,14.30
2019-01-11T08:30:56.279Z,16.00
2019-01-11T08:31:56.212Z,13.40
2019-01-11T08:32:56.178Z,24.20
2019-01-11T08:33:56.181Z,20.80
2019-01-11T08:34:56.063Z,17.90
2019-01-11T08:35:56.036Z,15.60
2019-01-11T08:36:56.004Z,13.40
2019-01-11T08:37:55.943Z,13.00
2019-01-11T08:38:57.765Z,14.00
2019-01-11T08:39:55.847Z,15.30
2019-01-11T08:40:55.822Z,16.70
2019-01-11T08:41:55.794Z,21.10
2019-01-11T08:42:55.702Z,42.20
2019-01-11T08:43:55.687Z,61.00
2019-01-11T08:44:55.623Z,15.80
2019-01-11T08:45:55.585Z,14.50
2019-01-11T08:46:55.529Z,13.80
2019-01-11T08:47:55.475Z,14.40
2019-01-11T08:48:55.430Z,13.30
2019-01-11T08:49:55.374Z,11.90
2019-01-11T08:50:55.347Z,11.00
2019-01-11T08:51:55.322Z,11.50
2019-01-11T08:52:55.251Z,11.40
2019-01-11T08:53:55.207Z,13.90
2019-01-11T08:54:55.164Z,13.70
2019-01-11T08:55:55.114Z,14.20
2019-01-11T08:56:55.059Z,14.60
2019-01-11T08:57:55.024Z,11.90
2019-01-11T08:58:55.037Z,11.80
2019-01-11T08:59:54.924Z,11.40
2019-01-11T09:00:54.878Z,11.80
2019-01-11T09:01:54.828Z,12.20
2019-01-11T09:02:54.816Z,15.60
2019-01-11T09:03:54.752Z,15.70
2019-01-11T09:04:54.707Z,22.00
2019-01-11T09:05:54.662Z,17.40
2019-01-11T09:06:54.638Z,13.90
2019-01-11T09:07:54.568Z,12.00
2019-01-11T09:08:54.522Z,12.30
2019-01-11T09:09:54.463Z,12.00
2019-01-11T09:10:54.425Z,11.80
2019-01-11T09:11:54.389Z,11.60
2019-01-11T09:12:54.339Z,10.80
2019-01-11T09:13:54.286Z,9.50
2019-01-11T09:14:54.244Z,9.40
2019-01-11T09:15:54.187Z,9.20
2019-01-11T09:16:54.149Z,9.60
2019-01-11T09:17:54.099Z,11.10
2019-01-11T09:18:54.104Z,9.40
2019-01-11T09:19:54.029Z,8.70
2019-01-11T09:20:53.969Z,8.70
2019-01-11T09:21:53.928Z,9.50
2019-01-11T09:22:53.891Z,9.40
2019-01-11T09:23:53.842Z,8.90
2019-01-11T09:24:53.789Z,8.20
2019-01-11T09:25:53.742Z,8.40
2019-01-11T09:26:53.706Z,8.40
2019-01-11T09:27:53.651Z,8.90
2019-01-11T09:28:53.610Z,8.40
2019-01-11T09:29:53.551Z,9.00
2019-01-11T09:30:53.520Z,8.10
2019-01-11T09:31:53.502Z,7.30
2019-01-11T09:32:53.540Z,7.70
2019-01-11T09:33:53.358Z,7.40
2019-01-11T09:34:53.320Z,7.00
2019-01-11T09:35:53.313Z,7.00
2019-01-11T09:36:53.252Z,7.20
2019-01-11T09:37:53.204Z,7.20
2019-01-11T09:38:53.147Z,6.90
2019-01-11T09:39:53.107Z,6.30
2019-01-11T09:40:53.075Z,6.30
2019-01-11T09:41:53.033Z,6.00
2019-01-11T09:42:52.961Z,6.40
2019-01-11T09:43:52.917Z,6.20
2019-01-11T09:44:52.886Z,5.80
2019-01-11T09:45:52.819Z,6.00
2019-01-11T09:46:52.808Z,5.90
2019-01-11T09:47:52.735Z,6.70
2019-01-11T09:48:52.697Z,6.10
2019-01-11T09:49:52.737Z,5.70
2019-01-11T09:50:52.606Z,5.60
2019-01-11T09:51:52.611Z,5.80
2019-01-11T09:52:52.514Z,5.70
2019-01-11T09:53:52.460Z,5.70
2019-01-11T09:54:52.553Z,5.60
2019-01-11T09:55:52.436Z,5.40
2019-01-11T09:56:52.392Z,4.90
2019-01-11T09:57:52.274Z,5.60
2019-01-11T09:58:52.244Z,5.10
2019-01-11T09:59:52.182Z,5.50
2019-01-11T10:00:59.104Z,5.30
2019-01-11T10:01:52.097Z,5.20
2019-01-11T10:02:52.055Z,4.80
2019-01-11T10:03:52.002Z,5.20
2019-01-11T10:04:52.010Z,5.70
2019-01-11T10:05:51.921Z,5.40
2019-01-11T10:06:51.873Z,5.10
2019-01-11T10:07:51.833Z,5.40
2019-01-11T10:08:51.795Z,5.30
2019-01-11T10:09:51.744Z,5.70
2019-01-11T10:10:51.695Z,4.90
2019-01-11T10:11:51.655Z,5.80
2019-01-11T10:12:51.612Z,5.60
2019-01-11T10:13:51.570Z,5.30
2019-01-11T10:14:51.527Z,5.50
2019-01-11T10:15:51.479Z,5.10
2019-01-11T10:16:51.407Z,5.30
2019-01-11T10:17:51.372Z,5.60
2019-01-11T10:18:51.317Z,4.80
2019-01-11T10:19:51.293Z,4.70
2019-01-11T10:20:51.230Z,4.70
2019-01-11T10:21:52.529Z,5.00
2019-01-11T10:22:51.165Z,4.70
2019-01-11T10:23:51.083Z,4.60
2019-01-11T10:24:51.067Z,5.10
2019-01-11T10:25:51.034Z,4.60
2019-01-11T10:26:50.963Z,5.00
2019-01-11T10:27:50.929Z,5.30
2019-01-11T10:28:50.865Z,4.90
2019-01-11T10:29:50.835Z,5.10
2019-01-11T10:30:50.773Z,5.20
2019-01-11T10:31:50.754Z,4.80
2019-01-11T10:32:50.718Z,4.30
2019-01-11T10:33:50.662Z,4.90
2019-01-11T10:34:50.613Z,4.70
2019-01-11T10:35:50.556Z,5.00
2019-01-11T10:36:50.522Z,5.10
2019-01-11T10:37:50.488Z,4.60
2019-01-11T10:38:50.424Z,4.00
2019-01-11T10:39:50.389Z,4.70
2019-01-11T10:40:50.333Z,4.80
2019-01-11T10:41:50.269Z,4.80
2019-01-11T10:42:50.237Z,6.00
2019-01-11T10:43:50.247Z,6.40
2019-01-11T10:44:50.170Z,6.20
2019-01-11T10:45:50.095Z,5.50
2019-01-11T10:46:50.047Z,5.20
2019-01-11T10:47:50.012Z,5.60
2019-01-11T10:48:49.962Z,4.50
2019-01-11T10:49:49.939Z,4.30
2019-01-11T10:50:49.898Z,4.70
2019-01-11T10:51:49.850Z,4.60
2019-01-11T10:52:49.782Z,4.40
2019-01-11T10:53:49.768Z,4.40
2019-01-11T10:54:49.689Z,5.10
2019-01-11T10:55:49.650Z,5.50
2019-01-11T10:56:49.611Z,5.50
2019-01-11T10:57:49.560Z,4.50
2019-01-11T10:58:49.522Z,4.50
2019-01-11T10:59:49.468Z,4.90
2019-01-11T11:00:49.418Z,4.40
2019-01-11T11:01:49.358Z,4.60
2019-01-11T11:02:49.334Z,5.00
2019-01-11T11:03:49.278Z,5.20
2019-01-11T11:04:49.242Z,4.70
2019-01-11T11:05:49.197Z,5.10
2019-01-11T11:06:49.196Z,4.90
2019-01-11T11:07:49.109Z,4.80
2019-01-11T11:08:49.064Z,5.20
2019-01-11T11:09:49.004Z,5.30
2019-01-11T11:10:49.001Z,5.20
2019-01-11T11:11:48.938Z,5.10
2019-01-11T11:12:48.953Z,5.00
2019-01-11T11:13:48.851Z,4.80
2019-01-11T11:14:48.786Z,5.40
2019-01-11T11:15:48.730Z,5.00
2019-01-11T11:16:48.694Z,5.40
2019-01-11T11:17:48.658Z,5.50
2019-01-11T11:18:48.683Z,5.10
2019-01-11T11:19:48.586Z,5.50
2019-01-11T11:20:48.562Z,5.80
2019-01-11T11:21:48.470Z,5.90
2019-01-11T11:22:48.439Z,5.70
2019-01-11T11:23:48.457Z,6.80
2019-01-11T11:24:48.334Z,6.70
2019-01-11T11:25:48.346Z,5.60
2019-01-11T11:26:48.245Z,6.00
2019-01-11T11:27:48.200Z,5.80
2019-01-11T11:28:48.170Z,6.50
2019-01-11T11:29:48.105Z,6.40
2019-01-11T11:30:50.985Z,6.40
2019-01-11T11:31:48.012Z,5.30
2019-01-11T11:32:47.968Z,5.70
2019-01-11T11:33:47.935Z,6.40
2019-01-11T11:34:47.873Z,5.60
2019-01-11T11:35:47.833Z,5.80
2019-01-11T11:36:47.858Z,6.40
2019-01-11T11:37:47.771Z,6.20
2019-01-11T11:38:47.727Z,6.10
2019-01-11T11:39:47.663Z,5.80
2019-01-11T11:40:47.620Z,6.30
2019-01-11T11:41:47.574Z,6.50
2019-01-11T11:42:47.545Z,6.10
2019-01-11T11:43:47.476Z,6.10
2019-01-11T11:44:47.421Z,6.10
2019-01-11T11:45:47.402Z,6.50
2019-01-11T11:46:47.367Z,5.90
2019-01-11T11:47:47.299Z,6.20
2019-01-11T11:48:47.272Z,5.70
2019-01-11T11:49:47.264Z,5.90
2019-01-11T11:50:47.168Z,6.20
2019-01-11T11:51:47.130Z,6.00
2019-01-11T11:52:47.080Z,7.10
2019-01-11T11:53:47.026Z,6.60
2019-01-11T11:54:46.991Z,6.50
2019-01-11T11:55:46.937Z,6.90
2019-01-11T11:56:46.890Z,6.50
2019-01-11T11:57:46.858Z,6.80
2019-01-11T11:58:46.790Z,6.20
2019-01-11T11:59:46.773Z,6.60
2019-01-11T12:00:46.721Z,6.40
2019-01-11T12:01:46.859Z,6.80
2019-01-11T12:02:46.635Z,6.80
2019-01-11T12:03:46.591Z,7.60
2019-01-11T12:04:46.529Z,7.70
2019-01-11T12:05:46.515Z,7.20
2019-01-11T12:06:46.440Z,7.10
2019-01-11T12:07:46.445Z,7.20
2019-01-11T12:08:46.365Z,7.40
2019-01-11T12:09:46.307Z,6.90
2019-01-11T12:10:46.278Z,7.80
2019-01-11T12:11:46.236Z,10.50
2019-01-11T12:12:46.208Z,7.10
2019-01-11T12:13:46.133Z,7.60
2019-01-11T12:14:46.103Z,7.30
2019-01-11T12:15:46.039Z,7.60
2019-01-11T12:16:46.015Z,6.90
2019-01-11T12:17:45.980Z,7.40
2019-01-11T12:18:45.930Z,7.60
2019-01-11T12:19:45.877Z,7.60
2019-01-11T12:20:45.835Z,7.70
2019-01-11T12:21:47.899Z,8.20
2019-01-11T12:22:45.744Z,9.00
2019-01-11T12:23:45.686Z,9.20
2019-01-11T12:24:45.630Z,8.00
2019-01-11T12:25:47.031Z,7.80
2019-01-11T12:26:45.670Z,8.10
2019-01-11T12:27:45.551Z,8.30
2019-01-11T12:28:45.560Z,8.20
2019-01-11T12:29:45.403Z,8.20
2019-01-11T12:30:45.385Z,8.60
2019-01-11T12:31:45.355Z,8.60
2019-01-11T12:32:45.289Z,8.90
2019-01-11T12:33:45.334Z,8.80
2019-01-11T12:34:45.198Z,9.30
2019-01-11T12:35:45.137Z,8.50
2019-01-11T12:36:45.129Z,8.50
2019-01-11T12:37:45.056Z,8.60
2019-01-11T12:38:45.009Z,8.00
2019-01-11T12:39:44.969Z,8.20
2019-01-11T12:40:44.970Z,8.50
2019-01-11T12:41:44.882Z,7.80
2019-01-11T12:42:44.838Z,7.60
2019-01-11T12:43:44.781Z,7.80
2019-01-11T12:44:44.738Z,8.50
2019-01-11T12:45:44.744Z,8.80
2019-01-11T12:46:44.647Z,9.10
2019-01-11T12:47:44.603Z,10.30
2019-01-11T12:48:44.560Z,9.90
2019-01-11T12:49:44.518Z,9.60
2019-01-11T12:50:44.552Z,9.60
2019-01-11T12:51:44.423Z,9.80
2019-01-11T12:52:44.406Z,8.40
2019-01-11T12:53:44.335Z,8.30
2019-01-11T12:54:44.321Z,7.50
2019-01-11T12:55:44.253Z,8.80
2019-01-11T12:56:44.252Z,8.60
2019-01-11T12:57:44.185Z,7.70
2019-01-11T12:58:44.112Z,8.80
2019-01-11T12:59:44.065Z,8.10
2019-01-11T13:00:44.033Z,8.10
2019-01-11T13:01:44.025Z,8.40
2019-01-11T13:02:43.933Z,7.20
2019-01-11T13:03:43.920Z,7.70
2019-01-11T13:04:43.858Z,8.10
2019-01-11T13:05:43.836Z,7.80
2019-01-11T13:06:43.770Z,8.00
2019-01-11T13:07:43.728Z,8.90
2019-01-11T13:08:43.671Z,7.50
2019-01-11T13:09:43.628Z,8.00
2019-01-11T13:10:43.574Z,7.60
2019-01-11T13:11:43.545Z,8.50
2019-01-11T13:12:43.496Z,8.30
2019-01-11T13:13:44.196Z,8.60
2019-01-11T13:14:43.402Z,8.50
2019-01-11T13:15:43.359Z,9.10
2019-01-11T13:16:43.317Z,8.40
2019-01-11T13:17:43.270Z,8.60
2019-01-11T13:18:43.227Z,8.60
2019-01-11T13:19:43.172Z,11.50
2019-01-11T13:20:43.143Z,8.40
2019-01-11T13:21:43.104Z,9.10
2019-01-11T13:22:43.045Z,8.70
2019-01-11T13:23:43.006Z,8.60
2019-01-11T13:24:42.959Z,8.80
2019-01-11T13:25:42.927Z,9.40
2019-01-11T13:26:42.878Z,8.90
2019-01-11T13:27:42.826Z,9.10
2019-01-11T13:28:42.788Z,9.10
2019-01-11T13:29:42.727Z,9.20
2019-01-11T13:30:42.682Z,9.00
2019-01-11T13:31:42.692Z,8.80
2019-01-11T13:32:42.598Z,9.40
2019-01-11T13:33:42.552Z,9.70
2019-01-11T13:34:42.513Z,9.90
2019-01-11T13:35:42.456Z,9.20
2019-01-11T13:36:42.423Z,9.10
2019-01-11T13:37:42.371Z,9.10
2019-01-11T13:38:42.329Z,9.30
2019-01-11T13:39:42.326Z,10.10
2019-01-11T13:40:42.226Z,10.70
2019-01-11T13:41:42.207Z,10.40
2019-01-11T13:42:42.140Z,13.90
2019-01-11T13:43:42.144Z,13.40
2019-01-11T13:44:42.048Z,11.60
2019-01-11T13:45:42.014Z,10.20
2019-01-11T13:46:41.971Z,10.10
2019-01-11T13:47:41.926Z,9.80
2019-01-11T13:48:41.874Z,10.70
2019-01-11T13:49:41.827Z,10.80
2019-01-11T13:50:41.822Z,10.60
2019-01-11T13:51:41.736Z,10.00
2019-01-11T13:52:41.693Z,10.20
2019-01-11T13:53:41.685Z,9.50
2019-01-11T13:54:41.625Z,9.80
2019-01-11T13:55:41.582Z,10.10
2019-01-11T13:56:41.525Z,10.20
2019-01-11T13:57:41.475Z,10.40
2019-01-11T13:58:41.435Z,10.10
2019-01-11T13:59:41.702Z,11.10
2019-01-11T14:00:41.335Z,10.40
2019-01-11T14:01:41.315Z,10.20
2019-01-11T14:02:41.274Z,10.40
2019-01-11T14:03:41.208Z,9.80
2019-01-11T14:04:41.184Z,10.60
2019-01-11T14:05:41.138Z,11.30
2019-01-11T14:06:41.097Z,11.50
2019-01-11T14:07:41.031Z,11.20
2019-01-11T14:08:41.008Z,10.70
2019-01-11T14:09:40.949Z,11.00
2019-01-11T14:10:40.909Z,10.60
2019-01-11T14:11:40.850Z,11.00
2019-01-11T14:12:40.807Z,10.40
2019-01-11T14:13:40.759Z,10.80
2019-01-11T14:14:41.209Z,11.20
2019-01-11T14:15:40.678Z,10.20
2019-01-11T14:16:40.670Z,10.60
2019-01-11T14:17:40.596Z,10.50
2019-01-11T14:18:40.531Z,12.20
2019-01-11T14:19:40.492Z,13.00
2019-01-11T14:20:40.463Z,11.20
2019-01-11T14:21:40.435Z,11.40
2019-01-11T14:22:40.365Z,11.10
2019-01-11T14:23:40.345Z,11.50
2019-01-11T14:24:40.299Z,11.30
2019-01-11T14:25:40.286Z,12.30
2019-01-11T14:26:40.162Z,11.80
2019-01-11T14:27:40.149Z,12.20